Wetterdaten: Woche 27.12.10 - 02.01.11 (KW52)
Datum Zeit Temperatur Luftfeuchte Luftdruck Niederschlag Wind Richtung Sonnenschein Solar Taupunkt Windchill Windben
27.12.2010 00:00 -10.2 C 92 % 1029.0 hPa 0.0 l/m 0.0 km/h (0 Bft) N 0.00 h 0 W/m -11.3 C -10.2 C 0.0 km/h (0 Bft)
27.12.2010 01:00 -8.8 C 93 % 1028.4 hPa 0.0 l/m 0.0 km/h (0 Bft) N 0.00 h 0 W/m -9.8 C -8.8 C 0.0 km/h (0 Bft)
27.12.2010 02:00 -9.5 C 92 % 1028.4 hPa 0.0 l/m 0.0 km/h (0 Bft) N 0.00 h 0 W/m -10.5 C -9.5 C 0.0 km/h (0 Bft)
27.12.2010 03:00 -10.2 C 93 % 1028.8 hPa 0.0 l/m 0.0 km/h (0 Bft) N 0.00 h 0 W/m -11.1 C -10.2 C 0.0 km/h (0 Bft)
27.12.2010 04:00 -10.1 C 93 % 1028.9 hPa 0.0 l/m 0.0 km/h (0 Bft) N 0.00 h 0 W/m -11.0 C -10.1 C 0.0 km/h (0 Bft)
27.12.2010 05:00 -10.0 C 93 % 1029.0 hPa 0.0 l/m 0.0 km/h (0 Bft) N 0.00 h 0 W/m -10.8 C -10.0 C 0.0 km/h (0 Bft)
27.12.2010 06:00 -10.0 C 93 % 1028.9 hPa 0.0 l/m 0.0 km/h (0 Bft) N 0.00 h 0 W/m -11.0 C -10.0 C 0.0 km/h (0 Bft)
27.12.2010 07:00 -10.3 C 93 % 1029.0 hPa 0.0 l/m 0.0 km/h (0 Bft) N 0.00 h 5 W/m -11.2 C -10.3 C 0.0 km/h (0 Bft)
27.12.2010 08:00 -11.1 C 92 % 1028.7 hPa 0.0 l/m 0.0 km/h (0 Bft) N 0.33 h 21 W/m -12.1 C -11.1 C 0.0 km/h (0 Bft)
27.12.2010 09:00 -10.4 C 93 % 1028.9 hPa 0.0 l/m 0.0 km/h (0 Bft) N 0.00 h 57 W/m -11.4 C -10.4 C 0.0 km/h (0 Bft)
27.12.2010 10:00 -9.5 C 93 % 1029.0 hPa 0.0 l/m 0.0 km/h (0 Bft) N 0.18 h 116 W/m -10.5 C -9.5 C 0.0 km/h (0 Bft)
27.12.2010 11:00 -8.7 C 92 % 1028.1 hPa 0.0 l/m 0.0 km/h (0 Bft) N 0.97 h 208 W/m -9.7 C -8.7 C 0.0 km/h (0 Bft)
27.12.2010 12:00 -7.6 C 90 % 1027.6 hPa 0.0 l/m 0.0 km/h (0 Bft) N 0.77 h 187 W/m -9.0 C -7.6 C 0.0 km/h (0 Bft)
27.12.2010 13:00 -6.4 C 89 % 1027.1 hPa 0.0 l/m 0.3 km/h (0 Bft) S-SO 0.47 h 164 W/m -7.9 C -6.4 C 1.4 km/h (1 Bft)
27.12.2010 14:00 -5.3 C 88 % 1026.7 hPa 0.0 l/m 0.3 km/h (0 Bft) S-SO 0.00 h 84 W/m -7.0 C -5.3 C 1.2 km/h (1 Bft)
27.12.2010 15:00 -5.0 C 88 % 1026.4 hPa 0.0 l/m 0.4 km/h (0 Bft) S-SO 0.00 h 46 W/m -6.7 C -5.1 C 1.4 km/h (1 Bft)
27.12.2010 16:00 -4.8 C 89 % 1025.9 hPa 0.0 l/m 0.3 km/h (0 Bft) S-SO 0.00 h 6 W/m -6.2 C -4.8 C 1.2 km/h (1 Bft)
27.12.2010 17:00 -4.8 C 90 % 1025.7 hPa 0.0 l/m 0.3 km/h (0 Bft) S-SO 0.00 h 0 W/m -6.2 C -4.8 C 1.2 km/h (1 Bft)
27.12.2010 18:00 -4.9 C 90 % 1025.4 hPa 0.0 l/m 0.1 km/h (0 Bft) S-SO 0.00 h 0 W/m -6.2 C -4.9 C 0.7 km/h (0 Bft)
27.12.2010 19:00 -5.4 C 92 % 1025.6 hPa 0.0 l/m 0.9 km/h (0 Bft) S-SO 0.00 h 0 W/m -6.5 C -5.4 C 1.5 km/h (1 Bft)
27.12.2010 20:00 -6.0 C 92 % 1025.5 hPa 0.0 l/m 1.8 km/h (1 Bft) O-SO 0.00 h 0 W/m -7.2 C -6.1 C 2.7 km/h (1 Bft)
27.12.2010 21:00 -7.0 C 92 % 1025.1 hPa 0.0 l/m 1.4 km/h (1 Bft) O-SO 0.00 h 0 W/m -8.0 C -7.1 C 2.7 km/h (1 Bft)
27.12.2010 22:00 -7.7 C 93 % 1025.1 hPa 0.0 l/m 3.4 km/h (1 Bft) O-SO 0.00 h 0 W/m -8.6 C -8.6 C 4.6 km/h (1 Bft)
27.12.2010 23:00 -7.2 C 93 % 1024.9 hPa 0.0 l/m 3.3 km/h (1 Bft) O-SO 0.00 h 0 W/m -8.1 C -7.6 C 4.8 km/h (1 Bft)
28.12.2010 00:00 -6.9 C 93 % 1024.5 hPa 0.0 l/m 2.6 km/h (1 Bft) O-SO 0.00 h 0 W/m -7.8 C -7.5 C 3.7 km/h (1 Bft)
28.12.2010 01:00 -6.9 C 93 % 1023.7 hPa 0.0 l/m 0.9 km/h (0 Bft) O-NO 0.00 h 0 W/m -7.9 C -7.0 C 1.6 km/h (1 Bft)
28.12.2010 02:00 -6.6 C 94 % 1023.8 hPa 0.0 l/m 0.3 km/h (0 Bft) O-NO 0.00 h 0 W/m -7.4 C -6.6 C 0.8 km/h (0 Bft)
28.12.2010 03:00 -6.3 C 94 % 1023.4 hPa 0.0 l/m 0.5 km/h (0 Bft) O-NO 0.00 h 0 W/m -7.1 C -6.3 C 1.0 km/h (0 Bft)
28.12.2010 04:00 -5.9 C 94 % 1023.0 hPa 0.0 l/m 0.4 km/h (0 Bft) O-NO 0.00 h 0 W/m -6.7 C -5.9 C 1.2 km/h (1 Bft)
28.12.2010 05:00 -5.8 C 94 % 1022.7 hPa 0.0 l/m 0.1 km/h (0 Bft) O-NO 0.00 h 0 W/m -6.6 C -5.8 C 0.4 km/h (0 Bft)
28.12.2010 06:00 -5.6 C 94 % 1022.5 hPa 0.0 l/m 0.1 km/h (0 Bft) O-NO 0.00 h 0 W/m -6.4 C -5.6 C 0.3 km/h (0 Bft)
28.12.2010 07:00 -5.3 C 95 % 1022.8 hPa 0.0 l/m 0.2 km/h (0 Bft) O-NO 0.00 h 0 W/m -6.0 C -5.3 C 0.7 km/h (0 Bft)
28.12.2010 08:00 -5.1 C 95 % 1023.5 hPa 0.0 l/m 0.1 km/h (0 Bft) O-NO 0.00 h 10 W/m -5.8 C -5.1 C 0.6 km/h (0 Bft)
28.12.2010 09:00 -4.6 C 94 % 1024.0 hPa 0.0 l/m 0.1 km/h (0 Bft) O-NO 0.00 h 33 W/m -5.4 C -4.6 C 0.6 km/h (0 Bft)
28.12.2010 10:00 -3.5 C 94 % 1023.9 hPa 0.0 l/m 0.0 km/h (0 Bft) N 0.00 h 76 W/m -4.3 C -3.5 C 0.3 km/h (0 Bft)
28.12.2010 11:00 -2.3 C 91 % 1023.3 hPa 0.0 l/m 0.3 km/h (0 Bft) O-NO 0.00 h 102 W/m -3.6 C -2.3 C 0.9 km/h (0 Bft)
28.12.2010 12:00 -1.7 C 89 % 1022.7 hPa 0.0 l/m 0.5 km/h (0 Bft) O-NO 0.00 h 114 W/m -3.4 C -1.7 C 1.1 km/h (1 Bft)
28.12.2010 13:00 -1.2 C 88 % 1022.6 hPa 0.0 l/m 0.7 km/h (0 Bft) O-NO 0.00 h 95 W/m -2.9 C -1.2 C 1.5 km/h (1 Bft)
28.12.2010 14:00 -0.7 C 88 % 1023.0 hPa 0.0 l/m 0.3 km/h (0 Bft) O-NO 0.00 h 45 W/m -2.5 C -0.7 C 1.0 km/h (0 Bft)
28.12.2010 15:00 -1.0 C 89 % 1023.3 hPa 0.0 l/m 0.4 km/h (0 Bft) O-NO 0.00 h 20 W/m -2.5 C -1.0 C 1.3 km/h (1 Bft)
28.12.2010 16:00 -1.4 C 92 % 1023.4 hPa 0.4 l/m 0.0 km/h (0 Bft) N 0.00 h 8 W/m -2.6 C -1.4 C 0.0 km/h (0 Bft)
28.12.2010 17:00 -1.7 C 93 % 1023.6 hPa 0.4 l/m 0.1 km/h (0 Bft) O-NO 0.00 h 0 W/m -2.6 C -1.7 C 0.8 km/h (0 Bft)
28.12.2010 18:00 -1.7 C 94 % 1024.1 hPa 0.4 l/m 0.0 km/h (0 Bft) N 0.00 h 0 W/m -2.5 C -1.7 C 0.1 km/h (0 Bft)
28.12.2010 19:00 -1.6 C 95 % 1024.0 hPa 0.2 l/m 0.0 km/h (0 Bft) O-NO 0.00 h 0 W/m -2.3 C -1.6 C 0.1 km/h (0 Bft)
28.12.2010 20:00 -1.6 C 96 % 1024.3 hPa 0.2 l/m 0.1 km/h (0 Bft) O-NO 0.00 h 0 W/m -2.2 C -1.6 C 0.4 km/h (0 Bft)
28.12.2010 21:00 -1.5 C 96 % 1024.3 hPa 0.2 l/m 0.1 km/h (0 Bft) O-NO 0.00 h 0 W/m -2.0 C -1.5 C 0.1 km/h (0 Bft)
28.12.2010 22:00 -1.4 C 96 % 1023.9 hPa 0.0 l/m 0.0 km/h (0 Bft) N 0.00 h 0 W/m -1.9 C -1.4 C 0.3 km/h (0 Bft)
28.12.2010 23:00 -1.3 C 96 % 1023.8 hPa 0.0 l/m 0.0 km/h (0 Bft) N 0.00 h 0 W/m -1.9 C -1.3 C 0.1 km/h (0 Bft)
29.12.2010 00:00 -1.2 C 97 % 1023.6 hPa 0.0 l/m 0.0 km/h (0 Bft) N 0.00 h 0 W/m -1.6 C -1.2 C 0.0 km/h (0 Bft)
29.12.2010 01:00 -1.1 C 97 % 1023.3 hPa 0.0 l/m 0.0 km/h (0 Bft) O-NO 0.00 h 0 W/m -1.5 C -1.1 C 0.1 km/h (0 Bft)
29.12.2010 02:00 -0.9 C 97 % 1023.3 hPa 0.2 l/m 0.0 km/h (0 Bft) N 0.00 h 0 W/m -1.3 C -0.9 C 0.0 km/h (0 Bft)
29.12.2010 03:00 -0.7 C 97 % 1023.3 hPa 0.0 l/m 0.0 km/h (0 Bft) N 0.00 h 0 W/m -1.1 C -0.7 C 0.0 km/h (0 Bft)
29.12.2010 04:00 -0.6 C 97 % 1023.2 hPa 0.0 l/m 0.0 km/h (0 Bft) N 0.00 h 0 W/m -1.0 C -0.6 C 0.0 km/h (0 Bft)
29.12.2010 05:00 -0.5 C 97 % 1023.1 hPa 0.0 l/m 0.0 km/h (0 Bft) N 0.00 h 0 W/m -0.9 C -0.5 C 0.0 km/h (0 Bft)
29.12.2010 06:00 -0.4 C 97 % 1023.0 hPa 0.0 l/m 0.1 km/h (0 Bft) O-NO 0.00 h 0 W/m -0.8 C -0.4 C 0.3 km/h (0 Bft)
29.12.2010 07:00 -0.4 C 97 % 1023.1 hPa 0.0 l/m 0.0 km/h (0 Bft) O-NO 0.00 h 0 W/m -0.8 C -0.4 C 0.1 km/h (0 Bft)
29.12.2010 08:00 -0.2 C 97 % 1023.3 hPa 0.0 l/m 0.0 km/h (0 Bft) O-NO 0.00 h 0 W/m -0.6 C -0.2 C 0.3 km/h (0 Bft)
29.12.2010 09:00 0.2 C 98 % 1023.5 hPa 0.0 l/m 0.0 km/h (0 Bft) O-NO 0.00 h 13 W/m -0.1 C 0.2 C 0.3 km/h (0 Bft)
29.12.2010 10:00 0.7 C 98 % 1023.5 hPa 0.0 l/m 0.1 km/h (0 Bft) O-NO 0.00 h 47 W/m 0.4 C 0.7 C 0.3 km/h (0 Bft)
29.12.2010 11:00 1.1 C 97 % 1023.4 hPa 0.0 l/m 0.1 km/h (0 Bft) O-NO 0.05 h 125 W/m 0.8 C 1.1 C 0.6 km/h (0 Bft)
29.12.2010 12:00 1.6 C 97 % 1023.0 hPa 0.0 l/m 0.0 km/h (0 Bft) O-NO 0.13 h 139 W/m 1.2 C 1.6 C 0.5 km/h (0 Bft)
29.12.2010 13:00 1.9 C 97 % 1022.8 hPa 0.0 l/m 0.0 km/h (0 Bft) N 0.00 h 118 W/m 1.4 C 1.9 C 0.2 km/h (0 Bft)
29.12.2010 14:00 2.2 C 96 % 1022.4 hPa 0.0 l/m 0.1 km/h (0 Bft) O-NO 0.00 h 109 W/m 1.6 C 2.2 C 0.8 km/h (0 Bft)
29.12.2010 15:00 2.3 C 96 % 1022.4 hPa 0.0 l/m 0.0 km/h (0 Bft) O-NO 0.00 h 41 W/m 1.7 C 2.3 C 0.4 km/h (0 Bft)
29.12.2010 16:00 2.0 C 95 % 1022.6 hPa 0.0 l/m 0.0 km/h (0 Bft) N 0.00 h 7 W/m 1.3 C 2.0 C 0.1 km/h (0 Bft)
29.12.2010 17:00 1.7 C 96 % 1022.8 hPa 0.0 l/m 0.1 km/h (0 Bft) O-NO 0.00 h 0 W/m 1.2 C 1.7 C 0.3 km/h (0 Bft)
29.12.2010 18:00 1.6 C 96 % 1023.1 hPa 0.0 l/m 0.0 km/h (0 Bft) N 0.00 h 0 W/m 1.1 C 1.6 C 0.0 km/h (0 Bft)
29.12.2010 19:00 1.4 C 96 % 1023.3 hPa 0.4 l/m 0.0 km/h (0 Bft) N 0.00 h 0 W/m 0.9 C 1.4 C 0.0 km/h (0 Bft)
29.12.2010 20:00 1.4 C 97 % 1023.2 hPa 0.0 l/m 0.0 km/h (0 Bft) N 0.00 h 0 W/m 1.0 C 1.4 C 0.0 km/h (0 Bft)
29.12.2010 21:00 1.4 C 97 % 1023.2 hPa 0.0 l/m 0.0 km/h (0 Bft) N 0.00 h 0 W/m 1.0 C 1.4 C 0.4 km/h (0 Bft)
29.12.2010 22:00 1.4 C 97 % 1023.1 hPa 0.0 l/m 0.1 km/h (0 Bft) O-NO 0.00 h 0 W/m 1.0 C 1.4 C 0.2 km/h (0 Bft)
29.12.2010 23:00 1.3 C 97 % 1023.3 hPa 0.0 l/m 0.0 km/h (0 Bft) N 0.00 h 0 W/m 0.9 C 1.3 C 0.1 km/h (0 Bft)
30.12.2010 00:00 1.3 C 97 % 1023.2 hPa 0.0 l/m 0.0 km/h (0 Bft) N 0.00 h 0 W/m 0.9 C 1.3 C 0.0 km/h (0 Bft)
30.12.2010 01:00 1.3 C 98 % 1022.9 hPa 0.0 l/m 0.0 km/h (0 Bft) N 0.00 h 0 W/m 1.0 C 1.3 C 0.1 km/h (0 Bft)
30.12.2010 02:00 1.2 C 98 % 1023.0 hPa 0.0 l/m 0.0 km/h (0 Bft) N 0.00 h 0 W/m 0.9 C 1.2 C 0.1 km/h (0 Bft)
30.12.2010 03:00 1.2 C 98 % 1023.2 hPa 0.0 l/m 0.0 km/h (0 Bft) N 0.00 h 0 W/m 0.9 C 1.2 C 0.0 km/h (0 Bft)
30.12.2010 04:00 1.3 C 98 % 1023.4 hPa 0.0 l/m 0.0 km/h (0 Bft) N 0.00 h 0 W/m 1.0 C 1.3 C 0.1 km/h (0 Bft)
30.12.2010 05:00 1.2 C 98 % 1023.3 hPa 0.0 l/m 0.1 km/h (0 Bft) O-NO 0.00 h 0 W/m 0.9 C 1.2 C 0.3 km/h (0 Bft)
30.12.2010 06:00 1.1 C 98 % 1023.3 hPa 0.0 l/m 0.2 km/h (0 Bft) O-NO 0.00 h 0 W/m 0.8 C 1.1 C 0.8 km/h (0 Bft)
30.12.2010 07:00 1.1 C 98 % 1023.5 hPa 0.0 l/m 0.4 km/h (0 Bft) O-NO 0.00 h 0 W/m 0.9 C 1.1 C 1.2 km/h (1 Bft)
30.12.2010 08:00 1.1 C 98 % 1023.7 hPa 0.0 l/m 0.1 km/h (0 Bft) O-NO 0.00 h 8 W/m 0.9 C 1.1 C 0.6 km/h (0 Bft)
30.12.2010 09:00 1.3 C 98 % 1024.1 hPa 0.0 l/m 0.1 km/h (0 Bft) O-NO 0.00 h 19 W/m 1.0 C 1.3 C 0.5 km/h (0 Bft)
30.12.2010 10:00 1.6 C 98 % 1024.3 hPa 0.0 l/m 0.0 km/h (0 Bft) N 0.00 h 41 W/m 1.4 C 1.6 C 0.0 km/h (0 Bft)
30.12.2010 11:00 2.2 C 99 % 1024.1 hPa 0.0 l/m 0.0 km/h (0 Bft) N 0.00 h 56 W/m 2.0 C 2.2 C 0.1 km/h (0 Bft)
30.12.2010 12:00 2.4 C 99 % 1023.6 hPa 0.0 l/m 0.0 km/h (0 Bft) N 0.00 h 64 W/m 2.3 C 2.4 C 0.5 km/h (0 Bft)
30.12.2010 13:00 2.7 C 99 % 1023.0 hPa 0.0 l/m 0.0 km/h (0 Bft) O-NO 0.00 h 52 W/m 2.5 C 2.7 C 0.5 km/h (0 Bft)
30.12.2010 14:00 2.7 C 98 % 1022.7 hPa 0.0 l/m 0.0 km/h (0 Bft) N 0.00 h 37 W/m 2.4 C 2.7 C 0.1 km/h (0 Bft)
30.12.2010 15:00 2.5 C 99 % 1022.9 hPa 0.0 l/m 0.0 km/h (0 Bft) N 0.00 h 18 W/m 2.3 C 2.5 C 0.0 km/h (0 Bft)
30.12.2010 16:00 2.3 C 98 % 1023.2 hPa 0.0 l/m 0.0 km/h (0 Bft) N 0.00 h 6 W/m 2.1 C 2.3 C 0.2 km/h (0 Bft)
30.12.2010 17:00 2.1 C 99 % 1023.2 hPa 0.0 l/m 0.2 km/h (0 Bft) O-NO 0.00 h 0 W/m 1.9 C 2.1 C 0.5 km/h (0 Bft)
30.12.2010 18:00 2.0 C 98 % 1023.1 hPa 0.0 l/m 0.3 km/h (0 Bft) O-NO 0.00 h 0 W/m 1.7 C 2.0 C 0.6 km/h (0 Bft)
30.12.2010 19:00 1.8 C 99 % 1023.2 hPa 0.0 l/m 0.1 km/h (0 Bft) O-NO 0.00 h 0 W/m 1.6 C 1.8 C 0.2 km/h (0 Bft)
30.12.2010 20:00 1.8 C 99 % 1023.2 hPa 0.0 l/m 0.3 km/h (0 Bft) O-NO 0.00 h 0 W/m 1.6 C 1.8 C 1.3 km/h (1 Bft)
30.12.2010 21:00 1.8 C 99 % 1023.1 hPa 0.0 l/m 0.4 km/h (0 Bft) O-NO 0.00 h 0 W/m 1.6 C 1.7 C 1.3 km/h (1 Bft)
30.12.2010 22:00 1.7 C 98 % 1023.4 hPa 0.0 l/m 0.3 km/h (0 Bft) O 0.00 h 0 W/m 1.4 C 1.7 C 1.0 km/h (0 Bft)
30.12.2010 23:00 1.5 C 98 % 1023.5 hPa 0.0 l/m 0.5 km/h (0 Bft) NO 0.00 h 0 W/m 1.2 C 1.5 C 2.0 km/h (1 Bft)
31.12.2010 00:00 1.3 C 98 % 1023.6 hPa 0.0 l/m 0.1 km/h (0 Bft) O-NO 0.00 h 0 W/m 1.0 C 1.3 C 0.7 km/h (0 Bft)
31.12.2010 01:00 1.2 C 98 % 1023.6 hPa 0.0 l/m 0.1 km/h (0 Bft) O-NO 0.00 h 0 W/m 0.9 C 1.2 C 0.7 km/h (0 Bft)
31.12.2010 02:00 1.1 C 98 % 1023.8 hPa 0.0 l/m 0.2 km/h (0 Bft) O 0.00 h 0 W/m 0.9 C 1.1 C 0.5 km/h (0 Bft)
31.12.2010 03:00 1.1 C 98 % 1023.9 hPa 0.0 l/m 0.2 km/h (0 Bft) O 0.00 h 0 W/m 0.8 C 1.1 C 0.6 km/h (0 Bft)
31.12.2010 04:00 1.1 C 98 % 1023.8 hPa 0.0 l/m 0.0 km/h (0 Bft) O 0.00 h 0 W/m 0.8 C 1.1 C 0.3 km/h (0 Bft)
31.12.2010 05:00 1.1 C 98 % 1023.9 hPa 0.0 l/m 0.0 km/h (0 Bft) N 0.00 h 0 W/m 0.8 C 1.1 C 0.1 km/h (0 Bft)
31.12.2010 06:00 1.1 C 98 % 1024.2 hPa 0.0 l/m 0.0 km/h (0 Bft) N 0.00 h 0 W/m 0.8 C 1.1 C 0.1 km/h (0 Bft)
31.12.2010 07:00 1.2 C 98 % 1024.4 hPa 0.0 l/m 0.5 km/h (0 Bft) S-SO 0.00 h 0 W/m 0.9 C 1.2 C 1.5 km/h (1 Bft)
31.12.2010 08:00 1.2 C 98 % 1024.9 hPa 0.0 l/m 0.1 km/h (0 Bft) S-SW 0.00 h 8 W/m 0.9 C 1.2 C 0.7 km/h (0 Bft)
31.12.2010 09:00 1.2 C 98 % 1025.4 hPa 0.0 l/m 0.2 km/h (0 Bft) S-SW 0.00 h 20 W/m 1.0 C 1.2 C 0.9 km/h (0 Bft)
31.12.2010 10:00 1.3 C 98 % 1025.4 hPa 0.0 l/m 0.5 km/h (0 Bft) S-SO 0.00 h 42 W/m 1.1 C 1.3 C 2.0 km/h (1 Bft)
31.12.2010 11:00 1.5 C 98 % 1025.1 hPa 0.0 l/m 0.2 km/h (0 Bft) S-SO 0.00 h 58 W/m 1.2 C 1.5 C 1.3 km/h (1 Bft)
31.12.2010 12:00 1.9 C 98 % 1024.7 hPa 0.0 l/m 0.6 km/h (0 Bft) S-SO 0.00 h 97 W/m 1.6 C 1.9 C 2.0 km/h (1 Bft)
31.12.2010 13:00 2.1 C 97 % 1024.3 hPa 0.0 l/m 0.1 km/h (0 Bft) S 0.00 h 71 W/m 1.6 C 2.1 C 0.8 km/h (0 Bft)
31.12.2010 14:00 2.1 C 96 % 1024.2 hPa 0.0 l/m 0.1 km/h (0 Bft) S 0.00 h 52 W/m 1.5 C 2.1 C 0.8 km/h (0 Bft)
31.12.2010 15:00 2.1 C 95 % 1024.2 hPa 0.0 l/m 0.0 km/h (0 Bft) N 0.00 h 28 W/m 1.4 C 2.1 C 0.2 km/h (0 Bft)
31.12.2010 16:00 1.8 C 95 % 1024.4 hPa 0.0 l/m 0.0 km/h (0 Bft) N 0.00 h 8 W/m 1.1 C 1.8 C 0.0 km/h (0 Bft)
31.12.2010 17:00 1.8 C 96 % 1024.4 hPa 0.0 l/m 0.0 km/h (0 Bft) N 0.00 h 0 W/m 1.2 C 1.8 C 0.0 km/h (0 Bft)
31.12.2010 18:00 1.6 C 97 % 1024.4 hPa 0.0 l/m 0.0 km/h (0 Bft) N 0.00 h 0 W/m 1.2 C 1.6 C 0.1 km/h (0 Bft)
31.12.2010 19:00 1.5 C 97 % 1024.5 hPa 0.0 l/m 0.0 km/h (0 Bft) N 0.00 h 0 W/m 1.1 C 1.5 C 0.1 km/h (0 Bft)
31.12.2010 20:00 1.6 C 98 % 1024.5 hPa 0.0 l/m 0.1 km/h (0 Bft) S 0.00 h 0 W/m 1.3 C 1.6 C 0.5 km/h (0 Bft)
31.12.2010 21:00 1.6 C 98 % 1024.4 hPa 0.0 l/m 0.1 km/h (0 Bft) S 0.00 h 0 W/m 1.3 C 1.6 C 0.7 km/h (0 Bft)
31.12.2010 22:00 1.4 C 98 % 1024.3 hPa 0.0 l/m 0.4 km/h (0 Bft) S 0.00 h 0 W/m 1.2 C 1.4 C 1.3 km/h (1 Bft)
31.12.2010 23:00 1.4 C 98 % 1024.1 hPa 0.0 l/m 0.1 km/h (0 Bft) S 0.00 h 0 W/m 1.1 C 1.4 C 0.5 km/h (0 Bft)
01.01.2011 00:00 1.3 C 98 % 1023.6 hPa 0.0 l/m 0.2 km/h (0 Bft) S 0.00 h 0 W/m 1.1 C 1.3 C 0.8 km/h (0 Bft)
01.01.2011 01:00 1.2 C 98 % 1023.1 hPa 0.0 l/m 0.3 km/h (0 Bft) S 0.00 h 0 W/m 1.0 C 1.2 C 0.9 km/h (0 Bft)
01.01.2011 02:00 1.2 C 98 % 1022.6 hPa 0.0 l/m 0.0 km/h (0 Bft) N 0.00 h 0 W/m 0.9 C 1.2 C 0.2 km/h (0 Bft)
01.01.2011 03:00 1.2 C 98 % 1022.4 hPa 0.0 l/m 0.3 km/h (0 Bft) S 0.00 h 0 W/m 0.9 C 1.2 C 1.5 km/h (1 Bft)
01.01.2011 04:00 1.3 C 98 % 1022.2 hPa 0.0 l/m 0.4 km/h (0 Bft) S 0.00 h 0 W/m 1.0 C 1.3 C 1.1 km/h (1 Bft)
01.01.2011 05:00 1.0 C 98 % 1022.2 hPa 0.0 l/m 1.7 km/h (1 Bft) S 0.00 h 0 W/m 0.8 C 0.9 C 3.9 km/h (1 Bft)
01.01.2011 06:00 0.7 C 98 % 1022.3 hPa 0.0 l/m 3.2 km/h (1 Bft) S 0.00 h 0 W/m 0.5 C 0.4 C 6.4 km/h (2 Bft)
01.01.2011 07:00 0.8 C 98 % 1022.5 hPa 0.0 l/m 1.6 km/h (1 Bft) S 0.00 h 0 W/m 0.5 C 0.7 C 3.9 km/h (1 Bft)
01.01.2011 08:00 0.8 C 98 % 1022.7 hPa 0.0 l/m 0.9 km/h (0 Bft) S 0.00 h 8 W/m 0.6 C 0.8 C 2.2 km/h (1 Bft)
01.01.2011 09:00 1.1 C 97 % 1022.8 hPa 0.0 l/m 0.2 km/h (0 Bft) S 0.00 h 23 W/m 0.7 C 1.1 C 1.2 km/h (1 Bft)
01.01.2011 10:00 1.5 C 97 % 1022.8 hPa 0.0 l/m 1.2 km/h (1 Bft) SW 0.00 h 50 W/m 1.0 C 1.5 C 3.0 km/h (1 Bft)
01.01.2011 11:00 1.9 C 97 % 1022.6 hPa 0.0 l/m 1.7 km/h (1 Bft) SW 0.00 h 65 W/m 1.4 C 1.9 C 3.7 km/h (1 Bft)
Min-Datum _ 27.12.10 27.12.10 01.01.11 - 27.12.10 - - - 27.12.10 27.12.10 27.12.10
_ Min-Zeit 08:15 14:13 04:00 - 00:00 - - - 08:15 22:22 00:00
Minimum _ -11.3 C 87 % 1022.1 hPa - 0.0 km/h (0 Bft) - - - -12.3 C -11.4 C 0.0 km/h (0 Bft)
Max-Datum _ 30.12.10 30.12.10 27.12.10 28.12.10 27.12.10 - 27.12.10 27.12.10 30.12.10 30.12.10 01.01.11
_ Max-Zeit 13:17 10:21 00:00 16:19 22:22 - 08:27 11:54 13:17 13:17 06:15
Maximum _ 2.7 C 99 % 1029.3 hPa 0.4 l/m 7.1 km/h
O-SO (2 Bft)
- 0.02 h 271 W/m 2.6 C 2.7 C 12.2 km/h
S-SO (2 Bft)
Durchschnitt _ -1.3 C 96 % 1024.2 hPa #2.4 l/m 0.3 km/h (0 Bft) O-SO #2:54 h 58 W/m -1.9 C -1.3 C 0.8 km/h (0 Bft)
© Kaiko 2010